Time;durP1;ratioP1;P1;durP2;ratioP2;P2;SDS_P1;SDS_P2;PMS_P1;PMS_P2;Temp;Humidity;BMP_temperature;BMP_pressure;BME280_temperature;BME280_humidity;BME280_pressure;Samples;Min_cycle;Max_cycle;Signal;HPM_P1;HPM_P2
2022/08/29 00:00:08;;;;;;;11.77;9.50;;;14.90;99.90;;;;;;5122372;28;20196;-83
2022/08/29 00:02:34;;;;;;;11.43;9.33;;;14.90;99.90;;;;;;5122813;28;20167;-84
2022/08/29 00:05:00;;;;;;;12.70;10.70;;;14.90;99.90;;;;;;5121206;28;20171;-82
2022/08/29 00:07:25;;;;;;;12.53;9.70;;;14.90;99.90;;;;;;5123589;28;20187;-82
2022/08/29 00:09:51;;;;;;;12.97;9.77;;;14.80;99.90;;;;;;5121841;28;20290;-81
2022/08/29 00:12:17;;;;;;;16.83;10.27;;;14.90;99.90;;;;;;5122634;28;20205;-83
2022/08/29 00:14:43;;;;;;;13.47;10.20;;;14.80;99.90;;;;;;5123152;28;20171;-82
2022/08/29 00:17:09;;;;;;;11.47;9.47;;;14.80;99.90;;;;;;5123979;28;20216;-82
2022/08/29 00:19:35;;;;;;;15.40;10.17;;;;;;;;;;5121725;28;20219;-81
2022/08/29 00:22:00;;;;;;;12.13;10.13;;;14.80;99.90;;;;;;5119417;28;20178;-81
2022/08/29 00:24:26;;;;;;;12.20;9.77;;;14.80;99.90;;;;;;5118044;28;20183;-82
2022/08/29 00:26:52;;;;;;;12.87;9.90;;;14.80;99.90;;;;;;5116897;28;20226;-81
2022/08/29 00:29:17;;;;;;;12.53;9.60;;;14.70;99.90;;;;;;5116553;28;20213;-81
2022/08/29 00:31:43;;;;;;;11.57;9.17;;;14.70;99.90;;;;;;5116615;28;20176;-82
2022/08/29 00:34:10;;;;;;;11.70;9.47;;;14.70;99.90;;;;;;5116469;28;20171;-80
2022/08/29 00:36:36;;;;;;;11.53;9.40;;;14.60;99.90;;;;;;5118084;28;20171;-81
2022/08/29 00:39:03;;;;;;;13.00;9.73;;;14.60;99.90;;;;;;5117665;28;20668;-80
2022/08/29 00:41:29;;;;;;;12.33;8.90;;;14.60;99.90;;;;;;5118663;28;20198;-81
2022/08/29 00:43:55;;;;;;;10.43;8.93;;;14.60;99.90;;;;;;5117789;28;20175;-82
2022/08/29 00:46:39;;;;;;;11.57;8.33;;;14.60;99.90;;;;;;5117714;28;20191;-81
2022/08/29 00:49:26;;;;;;;9.83;8.80;;;14.60;99.90;;;;;;5117191;28;20193;-80
2022/08/29 00:51:53;;;;;;;10.83;8.73;;;14.60;99.90;;;;;;5116346;28;20717;-81
2022/08/29 00:54:21;;;;;;;9.57;8.10;;;14.60;99.90;;;;;;5116620;28;20178;-81
2022/08/29 00:56:47;;;;;;;11.83;8.93;;;14.50;99.90;;;;;;5116732;28;20244;-81
2022/08/29 00:59:17;;;;;;;11.67;8.27;;;14.50;99.90;;;;;;5117700;28;20191;-80
2022/08/29 01:01:44;;;;;;;12.40;8.70;;;14.50;99.90;;;;;;5116920;28;20175;-82
2022/08/29 01:04:10;;;;;;;10.40;9.07;;;14.40;99.90;;;;;;5118090;28;20717;-83
2022/08/29 01:06:38;;;;;;;10.77;8.57;;;14.50;99.90;;;;;;5116920;28;20195;-83
2022/08/29 01:09:05;;;;;;;10.57;8.30;;;14.50;99.90;;;;;;5117667;28;20214;-81
2022/08/29 01:14:17;;;;;;;13.13;8.97;;;14.50;99.90;;;;;;5118474;28;20159;-82
2022/08/29 01:16:45;;;;;;;11.47;9.30;;;14.50;99.90;;;;;;5118201;28;20167;-81
2022/08/29 01:19:40;;;;;;;10.80;9.60;;;14.40;99.90;;;;;;5116904;28;20191;-81
2022/08/29 01:22:33;;;;;;;11.03;9.27;;;14.40;99.90;;;;;;5090918;28;20188;-83
2022/08/29 01:25:01;;;;;;;11.97;9.80;;;14.40;99.90;;;;;;5120163;28;20685;-82
2022/08/29 01:27:29;;;;;;;10.20;8.40;;;14.40;99.90;;;;;;5118341;28;20203;-82
2022/08/29 01:29:56;;;;;;;10.47;9.37;;;14.30;99.90;;;;;;5119817;28;20184;-81
2022/08/29 01:32:23;;;;;;;12.77;9.63;;;14.30;99.90;;;;;;5120815;28;20166;-82
2022/08/29 01:34:49;;;;;;;11.50;8.33;;;14.30;99.90;;;;;;5119231;28;20218;-82
2022/08/29 01:37:15;;;;;;;10.93;8.00;;;14.30;99.90;;;;;;5120315;28;20176;-83
2022/08/29 01:39:43;;;;;;;10.33;8.03;;;14.20;99.90;;;;;;5120368;28;20211;-82
2022/08/29 01:42:13;;;;;;;9.67;8.33;;;14.20;99.90;;;;;;5119975;28;20578;-82
2022/08/29 01:44:40;;;;;;;10.87;8.30;;;14.20;99.90;;;;;;5121391;28;20179;-84
2022/08/29 01:47:07;;;;;;;12.47;7.93;;;14.20;99.90;;;;;;5119334;28;20191;-81
2022/08/29 01:49:36;;;;;;;9.80;8.60;;;14.10;99.90;;;;;;5118596;28;20213;-82
2022/08/29 01:52:02;;;;;;;11.30;8.23;;;14.10;99.90;;;;;;5120368;28;20164;-82
2022/08/29 01:54:28;;;;;;;9.47;7.90;;;14.10;99.90;;;;;;5118537;28;20219;-82
2022/08/29 01:56:54;;;;;;;8.57;7.20;;;14.10;99.90;;;;;;5120020;28;20191;-82
2022/08/29 01:59:25;;;;;;;8.03;7.23;;;13.90;99.90;;;;;;5119855;28;20195;-82
2022/08/29 02:01:57;;;;;;;7.43;6.73;;;13.90;99.90;;;;;;5119239;28;20243;-82
2022/08/29 02:04:22;;;;;;;12.80;7.23;;;13.90;99.90;;;;;;5117580;28;20206;-82
2022/08/29 02:06:49;;;;;;;7.60;6.80;;;13.90;99.90;;;;;;5116148;28;20202;-81
2022/08/29 02:09:15;;;;;;;7.63;6.83;;;13.80;99.90;;;;;;5117027;28;20183;-81
2022/08/29 02:11:40;;;;;;;8.87;7.23;;;13.80;99.90;;;;;;5115751;28;20180;-81
2022/08/29 02:14:07;;;;;;;7.73;6.93;;;13.70;99.90;;;;;;5115519;28;20175;-81
2022/08/29 02:16:33;;;;;;;7.70;6.90;;;13.60;99.90;;;;;;5117160;28;20184;-81
2022/08/29 02:18:59;;;;;;;6.87;6.23;;;13.60;99.90;;;;;;5115377;28;20237;-81
2022/08/29 02:21:27;;;;;;;8.73;6.70;;;13.60;99.90;;;;;;5117002;28;20236;-80
2022/08/29 02:23:55;;;;;;;7.30;6.33;;;13.60;99.90;;;;;;5117860;28;20234;-81
2022/08/29 02:26:21;;;;;;;7.53;6.73;;;13.60;99.90;;;;;;5117036;28;20199;-81
2022/08/29 02:28:49;;;;;;;8.80;6.60;;;13.50;99.90;;;;;;5117093;28;20182;-82
2022/08/29 02:31:15;;;;;;;8.17;6.87;;;13.60;99.90;;;;;;5117779;28;20167;-81
2022/08/29 02:33:41;;;;;;;8.40;6.37;;;13.50;99.90;;;;;;5116435;28;20176;-82
2022/08/29 02:36:07;;;;;;;8.87;6.53;;;13.50;99.90;;;;;;5117673;28;20180;-81
2022/08/29 02:38:34;;;;;;;7.07;6.00;;;13.60;99.90;;;;;;5116021;28;20187;-82
2022/08/29 02:41:00;;;;;;;8.00;6.80;;;13.50;99.90;;;;;;5115958;28;20294;-82
2022/08/29 02:43:26;;;;;;;7.57;6.40;;;13.50;99.90;;;;;;5115793;28;20641;-82
2022/08/29 02:45:53;;;;;;;7.53;6.37;;;13.50;99.90;;;;;;5116625;28;20279;-82
2022/08/29 02:48:18;;;;;;;7.70;6.00;;;13.40;99.90;;;;;;5114576;28;20183;-82
2022/08/29 02:50:48;;;;;;;8.33;5.93;;;13.30;99.90;;;;;;5115673;28;20191;-82
2022/08/29 02:53:16;;;;;;;6.80;5.70;;;13.30;99.90;;;;;;5114727;28;20183;-82
2022/08/29 02:55:42;;;;;;;6.77;6.03;;;13.20;99.90;;;;;;5116086;28;20187;-81
2022/08/29 02:58:08;;;;;;;6.93;6.23;;;13.20;99.90;;;;;;5117215;28;20656;-82
2022/08/29 03:00:35;;;;;;;6.77;5.67;;;13.10;99.90;;;;;;5116809;28;20207;-82
2022/08/29 03:03:01;;;;;;;9.03;5.93;;;13.10;99.90;;;;;;5116165;28;20175;-82
2022/08/29 03:05:31;;;;;;;9.07;5.77;;;13.10;99.90;;;;;;5120282;28;20183;-82
2022/08/29 03:07:57;;;;;;;10.43;5.97;;;13.00;99.90;;;;;;5120247;28;20301;-81
2022/08/29 03:10:24;;;;;;;6.73;6.03;;;13.00;99.90;;;;;;5120741;28;20593;-82
2022/08/29 03:12:50;;;;;;;6.53;5.70;;;13.00;99.90;;;;;;5121643;28;20242;-82
2022/08/29 03:15:16;;;;;;;6.03;5.43;;;13.00;99.90;;;;;;5124601;28;20222;-82
2022/08/29 03:17:42;;;;;;;7.00;5.40;;;12.90;99.90;;;;;;5125382;28;20179;-82
2022/08/29 03:20:10;;;;;;;16.67;5.90;;;12.80;99.90;;;;;;5121935;28;20199;-80
2022/08/29 03:22:36;;;;;;;8.10;6.23;;;12.80;99.90;;;;;;5120120;28;20171;-82
2022/08/29 03:25:03;;;;;;;11.10;6.40;;;12.80;99.90;;;;;;5118593;28;20175;-82
2022/08/29 03:27:29;;;;;;;8.90;6.57;;;12.80;99.90;;;;;;5119990;28;20202;-84
2022/08/29 03:29:55;;;;;;;7.23;6.10;;;12.80;99.90;;;;;;5118784;28;20191;-82
2022/08/29 03:32:21;;;;;;;14.47;6.90;;;12.80;99.90;;;;;;5119050;28;20167;-83
2022/08/29 03:34:47;;;;;;;34.47;6.90;;;12.80;99.90;;;;;;5118928;28;20225;-82
2022/08/29 03:37:13;;;;;;;33.93;6.67;;;12.80;99.90;;;;;;5119592;28;20645;-82
2022/08/29 03:39:39;;;;;;;15.57;6.20;;;;;;;;;;5118342;28;20707;-81
2022/08/29 03:42:06;;;;;;;36.70;6.97;;;12.80;99.90;;;;;;5120280;28;20217;-84
2022/08/29 03:44:34;;;;;;;21.90;7.10;;;12.80;99.90;;;;;;5120366;28;20656;-82
2022/08/29 03:46:59;;;;;;;13.83;6.77;;;12.80;99.90;;;;;;5119719;28;20552;-85
2022/08/29 03:49:25;;;;;;;16.67;7.00;;;12.80;99.90;;;;;;5120480;28;20187;-82
2022/08/29 03:51:51;;;;;;;19.33;7.07;;;12.80;99.90;;;;;;5119205;28;20167;-81
2022/08/29 03:54:17;;;;;;;12.67;7.13;;;12.80;99.90;;;;;;5119372;28;20644;-83
2022/08/29 03:56:42;;;;;;;27.40;6.57;;;12.90;99.90;;;;;;5118864;28;20198;-82
2022/08/29 03:59:09;;;;;;;25.83;6.80;;;12.80;99.90;;;;;;5120611;28;20222;-84
2022/08/29 04:01:34;;;;;;;33.73;6.50;;;12.80;99.90;;;;;;5119768;28;20609;-83
2022/08/29 04:04:00;;;;;;;30.60;6.67;;;12.70;99.90;;;;;;5121112;28;20704;-83
2022/08/29 04:06:29;;;;;;;21.17;6.00;;;12.70;99.90;;;;;;5119712;28;20550;-83
2022/08/29 04:08:55;;;;;;;69.60;6.93;;;12.70;99.90;;;;;;5119991;28;20271;-83
2022/08/29 04:11:23;;;;;;;36.23;5.50;;;12.60;99.90;;;;;;5121693;28;20529;-83
2022/08/29 04:13:50;;;;;;;16.40;5.30;;;12.60;99.90;;;;;;5121744;28;20193;-84
2022/08/29 04:16:25;;;;;;;12.70;5.10;;;12.60;99.90;;;;;;5121991;28;20171;-84
2022/08/29 04:18:50;;;;;;;23.70;5.23;;;12.60;99.90;;;;;;5118582;28;20202;-82
2022/08/29 04:21:17;;;;;;;6.97;4.70;;;12.60;99.90;;;;;;5118805;28;20187;-82
2022/08/29 04:23:44;;;;;;;13.53;5.00;;;12.60;99.90;;;;;;5119105;28;20656;-81
2022/08/29 04:26:16;;;;;;;11.97;4.60;;;12.50;99.90;;;;;;5118284;28;20267;-82
2022/08/29 04:28:42;;;;;;;6.10;4.57;;;12.50;99.90;;;;;;5119597;28;20194;-82
2022/08/29 04:31:14;;;;;;;5.03;4.50;;;12.40;99.90;;;;;;5120042;28;20163;-83
2022/08/29 04:33:40;;;;;;;5.07;4.57;;;12.50;99.90;;;;;;5118237;28;20636;-83
2022/08/29 04:36:06;;;;;;;5.40;4.90;;;12.50;99.90;;;;;;5118591;28;20186;-83
2022/08/29 04:38:32;;;;;;;6.27;4.67;;;12.50;99.90;;;;;;5118595;28;20636;-82
2022/08/29 04:40:58;;;;;;;4.47;4.07;;;12.50;99.90;;;;;;5117715;28;20229;-83
2022/08/29 04:43:24;;;;;;;5.13;4.63;;;12.50;99.90;;;;;;5117358;28;20175;-83
2022/08/29 04:45:54;;;;;;;4.70;4.10;;;12.50;99.90;;;;;;5118363;28;20195;-82
2022/08/29 04:48:20;;;;;;;4.97;4.47;;;12.60;99.90;;;;;;5118626;28;20505;-82
2022/08/29 04:50:53;;;;;;;4.53;4.13;;;12.60;99.90;;;;;;5119381;28;20191;-81
2022/08/29 05:37:23;;;;;;;6.73;4.53;;;13.00;99.90;;;;;;5117824;27;20336;-82
2022/08/29 05:39:49;;;;;;;6.57;4.77;;;13.00;99.90;;;;;;5117004;28;20242;-82
2022/08/29 05:42:18;;;;;;;6.07;5.47;;;13.00;99.90;;;;;;5118613;28;20611;-83
2022/08/29 05:44:44;;;;;;;6.40;5.60;;;13.00;99.90;;;;;;5115917;28;20236;-83
2022/08/29 05:57:19;;;;;;;6.50;5.73;;;13.30;99.90;;;;;;5136223;27;20263;-83
2022/08/29 05:59:50;;;;;;;5.93;5.33;;;13.30;99.90;;;;;;5135857;28;20199;-83
2022/08/29 06:02:17;;;;;;;6.23;5.63;;;13.40;99.90;;;;;;5134909;28;20193;-82
2022/08/29 06:04:44;;;;;;;5.30;4.80;;;13.40;99.90;;;;;;5133808;28;20219;-84
2022/08/29 06:07:10;;;;;;;6.63;5.27;;;13.40;99.90;;;;;;5136174;27;20202;-82
2022/08/29 06:09:38;;;;;;;5.60;5.10;;;13.50;99.90;;;;;;5135707;28;20194;-82
2022/08/29 06:12:04;;;;;;;7.37;5.43;;;13.50;99.90;;;;;;5137859;27;20237;-82
2022/08/29 06:14:30;;;;;;;5.57;5.03;;;13.50;99.90;;;;;;5137197;27;20178;-83
2022/08/29 06:16:56;;;;;;;6.20;5.23;;;13.60;99.90;;;;;;5137551;28;20202;-80
2022/08/29 06:19:21;;;;;;;6.03;5.37;;;13.80;99.90;;;;;;5136312;28;20195;-81
2022/08/29 06:29:10;;;;;;;6.30;5.07;;;14.10;99.90;;;;;;5149066;27;20352;-80
2022/08/29 06:31:36;;;;;;;6.83;5.30;;;14.20;99.90;;;;;;5140018;28;20692;-78
2022/08/29 06:34:04;;;;;;;5.83;4.57;;;14.20;99.90;;;;;;5144787;28;20167;-79
2022/08/29 06:36:30;;;;;;;5.93;5.13;;;14.30;99.90;;;;;;5154918;28;20200;-80
2022/08/29 06:38:58;;;;;;;5.17;4.67;;;14.60;99.90;;;;;;5154050;27;20183;-80
2022/08/29 06:41:24;;;;;;;6.10;4.70;;;14.60;99.90;;;;;;5136296;27;20175;-80
2022/08/29 06:43:50;;;;;;;7.90;4.77;;;14.70;99.90;;;;;;5131697;28;20189;-80
2022/08/29 06:46:20;;;;;;;5.50;4.57;;;14.80;99.90;;;;;;5132631;27;20171;-80
2022/08/29 06:48:46;;;;;;;8.47;5.07;;;14.90;99.90;;;;;;5132609;27;20227;-81
2022/08/29 06:51:12;;;;;;;6.70;4.63;;;14.90;99.90;;;;;;5132837;27;20174;-80
2022/08/29 06:53:38;;;;;;;5.27;4.20;;;15.00;99.90;;;;;;5131618;28;20175;-80
2022/08/29 06:56:07;;;;;;;5.57;4.40;;;15.10;99.90;;;;;;5132853;27;20172;-81
2022/08/29 06:58:34;;;;;;;6.30;4.70;;;15.20;99.90;;;;;;5131670;28;20185;-81
2022/08/29 07:01:11;;;;;;;7.37;4.53;;;15.30;99.90;;;;;;5132017;28;20286;-82
2022/08/29 07:03:38;;;;;;;4.93;4.43;;;15.40;99.90;;;;;;5132972;27;20155;-81
2022/08/29 07:06:04;;;;;;;5.80;4.23;;;15.40;99.90;;;;;;5131531;28;20182;-81
2022/08/29 07:08:31;;;;;;;5.47;4.47;;;15.60;99.90;;;;;;5131716;28;20295;-81
2022/08/29 07:10:57;;;;;;;7.43;5.40;;;15.70;99.90;;;;;;5131298;28;20744;-82
2022/08/29 07:13:22;;;;;;;6.17;5.30;;;15.70;99.90;;;;;;5132728;27;20171;-81
2022/08/29 07:15:48;;;;;;;5.90;4.60;;;15.90;99.90;;;;;;5132827;27;20172;-81
2022/08/29 07:18:14;;;;;;;6.03;4.47;;;16.00;99.90;;;;;;5132568;27;20183;-80
2022/08/29 07:20:40;;;;;;;6.80;4.50;;;16.20;99.90;;;;;;5133269;27;20563;-80
2022/08/29 07:23:06;;;;;;;7.83;5.00;;;16.30;99.90;;;;;;5133141;27;20172;-80
2022/08/29 07:25:32;;;;;;;6.57;5.00;;;16.40;99.90;;;;;;5133200;27;20175;-82
2022/08/29 07:27:58;;;;;;;5.90;4.80;;;16.50;99.90;;;;;;5131892;28;20260;-81
2022/08/29 07:30:24;;;;;;;7.47;5.17;;;16.70;99.90;;;;;;5133356;27;20250;-82
2022/08/29 07:32:50;;;;;;;6.20;5.13;;;16.80;99.90;;;;;;5132004;28;20645;-80
2022/08/29 07:35:18;;;;;;;7.47;5.70;;;16.90;99.90;;;;;;5131851;28;20183;-81
2022/08/29 07:37:44;;;;;;;8.63;6.40;;;17.10;99.90;;;;;;5131612;28;20200;-81
2022/08/29 07:40:12;;;;;;;7.37;5.30;;;17.40;99.90;;;;;;5121032;27;20200;-80
2022/08/29 07:42:38;;;;;;;6.50;5.80;;;17.50;99.90;;;;;;5120648;28;20540;-81
2022/08/29 07:45:06;;;;;;;10.50;6.07;;;17.60;99.90;;;;;;5121644;28;20181;-82
2022/08/29 07:47:33;;;;;;;9.53;8.10;;;17.80;99.90;;;;;;5122940;28;20207;-81
2022/08/29 07:50:00;;;;;;;12.40;8.40;;;18.30;99.90;;;;;;5126356;28;20188;-81
2022/08/29 07:52:27;;;;;;;9.40;7.77;;;18.50;99.90;;;;;;5119870;28;20184;-83
2022/08/29 07:54:54;;;;;;;9.63;8.17;;;18.80;99.90;;;;;;5119968;28;20177;-82
2022/08/29 07:57:20;;;;;;;8.87;7.97;;;19.00;99.90;;;;;;5120128;28;20188;-82
2022/08/29 07:59:45;;;;;;;8.40;7.60;;;19.20;99.90;;;;;;5118556;28;20204;-82
2022/08/29 08:02:11;;;;;;;14.13;8.30;;;19.50;99.90;;;;;;5118197;28;20581;-83
2022/08/29 08:04:37;;;;;;;8.00;7.00;;;19.70;99.90;;;;;;5125794;28;20221;-81
2022/08/29 08:07:03;;;;;;;10.83;8.30;;;19.80;99.90;;;;;;5119602;28;20312;-83
2022/08/29 08:09:29;;;;;;;10.73;7.00;;;20.00;99.90;;;;;;5121362;27;20198;-82
2022/08/29 08:11:55;;;;;;;10.10;8.60;;;20.00;99.90;;;;;;5121287;28;20179;-83
2022/08/29 08:14:20;;;;;;;10.73;7.77;;;20.20;99.90;;;;;;5119733;28;20187;-82
2022/08/29 08:16:46;;;;;;;11.70;7.87;;;20.30;99.90;;;;;;5121025;28;20167;-83
2022/08/29 08:19:13;;;;;;;8.87;6.97;;;20.70;99.90;;;;;;5121349;28;20192;-82
2022/08/29 08:21:39;;;;;;;9.47;7.77;;;20.90;99.90;;;;;;5119998;28;20179;-82
2022/08/29 08:24:06;;;;;;;10.70;8.40;;;21.20;99.90;;;;;;5119852;28;20203;-83
2022/08/29 08:26:32;;;;;;;8.77;7.97;;;21.50;99.90;;;;;;5121437;28;20172;-83
2022/08/29 08:28:58;;;;;;;9.03;7.93;;;21.90;99.90;;;;;;5121549;28;20287;-83
2022/08/29 08:31:24;;;;;;;7.27;6.53;;;22.20;99.90;;;;;;5121542;28;20541;-82
2022/08/29 08:33:50;;;;;;;8.60;5.20;;;22.50;99.90;;;;;;5121889;28;20172;-83
2022/08/29 08:36:27;;;;;;;6.43;5.03;;;22.80;99.90;;;;;;5121685;28;20180;-82
2022/08/29 08:38:53;;;;;;;10.00;5.80;;;23.00;99.90;;;;;;5122693;28;20189;-83
2022/08/29 08:41:23;;;;;;;5.80;5.17;;;23.20;99.90;;;;;;5121161;28;20194;-83
2022/08/29 08:43:55;;;;;;;7.13;5.50;;;23.40;99.90;;;;;;5120592;28;20180;-83
2022/08/29 08:46:39;;;;;;;7.00;5.20;;;23.60;99.90;;;;;;5120377;28;20205;-81
2022/08/29 08:49:12;;;;;;;7.97;5.30;;;23.90;99.90;;;;;;5119794;28;20216;-83
2022/08/29 08:51:43;;;;;;;6.77;4.60;;;24.10;99.90;;;;;;5118691;28;20173;-83
2022/08/29 08:54:18;;;;;;;6.13;4.53;;;24.40;99.90;;;;;;5120918;28;20160;-82
2022/08/29 08:56:48;;;;;;;6.13;4.97;;;24.60;99.90;;;;;;5119557;28;20655;-82
2022/08/29 08:59:23;;;;;;;8.70;4.60;;;24.80;99.90;;;;;;5120214;28;20196;-82
2022/08/29 09:02:28;;;;;;;7.60;4.93;;;24.90;99.90;;;;;;5121591;28;20157;-80
2022/08/29 09:04:59;;;;;;;4.87;4.37;;;24.80;99.90;;;;;;5104106;28;20269;-80
2022/08/29 09:07:31;;;;;;;10.30;4.40;;;24.80;99.90;;;;;;5116554;28;20177;-79
2022/08/29 09:10:22;;;;;;;6.33;4.20;;;24.90;99.90;;;;;;5117222;28;20543;-79
2022/08/29 09:12:59;;;;;;;6.87;3.97;;;24.90;99.90;;;;;;5116851;28;20229;-78
2022/08/29 09:15:33;;;;;;;6.73;4.50;;;25.00;99.90;;;;;;5115891;28;20201;-79
2022/08/29 09:18:04;;;;;;;3.93;3.53;;;25.20;99.90;;;;;;5117808;28;20270;-81
2022/08/29 09:20:32;;;;;;;4.83;3.83;;;25.40;99.90;;;;;;5117900;27;20680;-81
2022/08/29 09:23:27;;;;;;;7.00;4.07;;;25.40;99.90;;;;;;5117630;27;20176;-81
2022/08/29 09:25:53;;;;;;;4.87;3.67;;;25.40;99.90;;;;;;5117401;27;20705;-80
2022/08/29 09:28:19;;;;;;;5.03;4.20;;;25.50;99.90;;;;;;5117379;28;20197;-81
2022/08/29 09:31:20;;;;;;;7.07;3.73;;;25.60;99.90;;;;;;5115170;28;20258;-80
2022/08/29 09:33:48;;;;;;;5.73;3.47;;;25.70;99.90;;;;;;5117784;28;20163;-79
2022/08/29 09:36:31;;;;;;;6.20;3.77;;;25.70;99.90;;;;;;5117608;28;20174;-81
2022/08/29 09:39:12;;;;;;;4.87;3.80;;;25.90;99.90;;;;;;5117489;28;20185;-81
2022/08/29 09:41:39;;;;;;;5.30;3.53;;;26.00;99.90;;;;;;5116577;28;20661;-79
2022/08/29 09:44:12;;;;;;;4.63;3.97;;;26.10;99.90;;;;;;5117851;28;20178;-80
2022/08/29 09:46:48;;;;;;;6.37;3.70;;;26.30;99.90;;;;;;5123455;28;20268;-79
2022/08/29 09:49:17;;;;;;;4.60;3.67;;;26.30;99.90;;;;;;5120869;28;20555;-80
2022/08/29 09:51:49;;;;;;;7.57;3.90;;;26.50;99.90;;;;;;5119128;28;20178;-82
2022/08/29 09:54:30;;;;;;;4.50;4.00;;;26.70;99.90;;;;;;5119126;28;20625;-83
2022/08/29 09:57:09;;;;;;;6.23;3.90;;;26.50;99.90;;;;;;5118150;28;20166;-80
2022/08/29 09:59:38;;;;;;;7.57;4.73;;;26.40;99.90;;;;;;5116946;28;20195;-81
2022/08/29 10:02:24;;;;;;;4.97;3.93;;;26.30;99.90;;;;;;5118685;28;20655;-80
2022/08/29 10:04:55;;;;;;;7.43;4.00;;;26.30;99.90;;;;;;5115212;28;20182;-84
2022/08/29 10:07:33;;;;;;;8.00;4.73;;;26.00;99.90;;;;;;5119726;28;20639;-82
2022/08/29 10:10:25;;;;;;;6.13;4.20;;;26.00;99.90;;;;;;5119001;28;20196;-80
2022/08/29 10:13:12;;;;;;;4.83;4.33;;;26.20;99.90;;;;;;5116580;28;20191;-82
2022/08/29 10:15:50;;;;;;;5.80;3.87;;;26.70;99.90;;;;;;5121529;28;20194;-85
2022/08/29 10:18:43;;;;;;;4.93;4.17;;;27.00;99.90;;;;;;5122471;28;20228;-82
2022/08/29 10:21:46;;;;;;;7.60;4.00;;;27.40;99.90;;;;;;5120461;28;20183;-81
2022/08/29 10:24:33;;;;;;;6.13;4.00;;;27.90;99.90;;;;;;5119017;28;20176;-86
2022/08/29 10:27:31;;;;;;;4.80;3.73;;;28.10;99.90;;;;;;5116441;28;20163;-83
2022/08/29 10:30:07;;;;;;;4.63;3.97;;;28.10;99.90;;;;;;5118597;28;20748;-81
2022/08/29 10:32:51;;;;;;;6.70;4.47;;;27.70;99.90;;;;;;5117004;28;20163;-84
2022/08/29 10:35:31;;;;;;;4.10;3.70;;;27.10;99.90;;;;;;5120826;28;20196;-83
2022/08/29 10:38:17;;;;;;;4.60;4.00;;;27.20;99.90;;;;;;5123040;28;20198;-82
2022/08/29 10:41:01;;;;;;;5.77;3.57;;;27.30;99.90;;;;;;5122232;28;20227;-83
2022/08/29 10:43:38;;;;;;;4.33;3.97;;;27.60;99.90;;;;;;5120450;28;20162;-83
2022/08/29 10:46:36;;;;;;;5.27;3.30;;;27.80;99.90;;;;;;5120782;28;20532;-83
2022/08/29 10:49:47;;;;;;;6.27;3.90;;;28.10;99.90;;;;;;5098133;28;20225;-83
2022/08/29 10:52:41;;;;;;;4.20;3.27;;;28.20;99.90;;;;;;5099629;28;20176;-84
2022/08/29 10:55:45;;;;;;;9.03;3.77;;;28.70;99.90;;;;;;5098730;28;20168;-86
2022/08/29 10:58:19;;;;;;;5.07;3.50;;;28.70;99.90;;;;;;5098833;28;20200;-86
2022/08/29 11:00:53;;;;;;;3.83;3.00;;;28.90;99.90;;;;;;5099429;28;20200;-84
2022/08/29 11:03:38;;;;;;;4.03;3.50;;;28.90;99.90;;;;;;5099049;28;20180;-84
2022/08/29 11:06:27;;;;;;;3.73;3.37;;;29.00;99.90;;;;;;5099390;28;20160;-81
2022/08/29 11:09:21;;;;;;;6.40;3.50;;;29.60;99.90;;;;;;5098564;28;20239;-82
2022/08/29 11:12:11;;;;;;;4.13;3.23;;;29.60;99.90;;;;;;5105738;28;20269;-83
2022/08/29 11:14:46;;;;;;;4.50;3.60;;;29.80;99.90;;;;;;5121864;28;20177;-81
2022/08/29 11:17:15;;;;;;;4.20;3.83;;;29.80;99.90;;;;;;5116809;28;20204;-82
2022/08/29 11:20:01;;;;;;;5.33;3.60;;;28.10;99.90;;;;;;5102723;28;20200;-82
2022/08/29 11:22:39;;;;;;;4.87;3.47;;;27.60;99.90;;;;;;5101613;28;20640;-81
2022/08/29 11:25:12;;;;;;;4.23;3.50;;;26.60;99.90;;;;;;5101923;28;20155;-82
2022/08/29 11:27:43;;;;;;;4.33;3.83;;;26.50;99.90;;;;;;5102936;28;20219;-79
2022/08/29 11:30:18;;;;;;;5.53;3.00;;;27.00;99.90;;;;;;5102110;28;20256;-81
2022/08/29 11:33:13;;;;;;;4.60;3.10;;;26.80;99.90;;;;;;5101916;28;20653;-83
2022/08/29 11:36:06;;;;;;;4.07;3.00;;;26.80;99.90;;;;;;5102320;28;20548;-82
2022/08/29 11:39:09;;;;;;;3.80;3.40;;;28.40;99.90;;;;;;5101155;28;20656;-81
2022/08/29 11:41:44;;;;;;;6.13;3.30;;;28.40;99.90;;;;;;5101830;28;20164;-81
2022/08/29 11:44:39;;;;;;;5.53;3.37;;;28.40;99.90;;;;;;5100239;28;20181;-82
2022/08/29 11:47:29;;;;;;;3.40;2.80;;;28.70;99.90;;;;;;5101368;28;20165;-81
2022/08/29 11:50:01;;;;;;;4.67;3.73;;;29.40;99.90;;;;;;5100726;28;20558;-81
2022/08/29 11:52:28;;;;;;;5.23;3.63;;;29.50;99.90;;;;;;5101406;28;20221;-80
2022/08/29 11:54:55;;;;;;;3.50;3.20;;;29.70;99.90;;;;;;5101269;28;20169;-81
2022/08/29 11:57:30;;;;;;;3.23;2.90;;;28.90;99.90;;;;;;5100848;28;20196;-81
2022/08/29 12:00:00;;;;;;;7.57;3.10;;;28.80;99.90;;;;;;5102180;28;20197;-80
2022/08/29 12:02:31;;;;;;;2.93;2.70;;;29.00;99.90;;;;;;5100458;28;20607;-82
2022/08/29 12:05:28;;;;;;;5.50;3.20;;;29.60;99.90;;;;;;5102148;28;20172;-80
2022/08/29 12:08:16;;;;;;;6.40;3.40;;;30.20;99.90;;;;;;5135905;27;20171;-81
2022/08/29 12:10:55;;;;;;;4.13;3.57;;;30.80;99.90;;;;;;5136093;27;20207;-82
2022/08/29 12:13:42;;;;;;;5.80;3.30;;;30.90;99.90;;;;;;5115066;27;20171;-81
2022/08/29 12:16:10;;;;;;;3.90;3.07;;;31.00;99.90;;;;;;5101030;28;20211;-82
2022/08/29 12:18:49;;;;;;;3.97;3.10;;;31.10;99.90;;;;;;5101310;28;20200;-79
2022/08/29 12:21:38;;;;;;;4.73;3.00;;;31.10;99.90;;;;;;5101294;28;20576;-80
2022/08/29 12:24:25;;;;;;;4.57;3.10;;;31.30;99.90;;;;;;5101405;28;20558;-79
2022/08/29 12:26:51;;;;;;;4.07;3.20;;;30.60;99.90;;;;;;5120958;28;20274;-80
2022/08/29 12:29:26;;;;;;;4.63;2.90;;;29.60;99.90;;;;;;5099295;28;20200;-81
2022/08/29 12:32:16;;;;;;;3.87;2.97;;;29.40;99.90;;;;;;5115826;28;20179;-83
2022/08/29 12:35:16;;;;;;;6.33;2.90;;;28.40;99.90;;;;;;5098349;28;20176;-80
2022/08/29 12:38:06;;;;;;;4.80;3.00;;;28.80;99.90;;;;;;5097786;28;20201;-80
2022/08/29 12:40:49;;;;;;;4.03;3.13;;;29.70;99.90;;;;;;5096593;28;20197;-81
2022/08/29 12:43:42;;;;;;;3.00;2.70;;;30.40;99.90;;;;;;5098159;28;20162;-81
2022/08/29 12:46:14;;;;;;;4.70;2.93;;;30.60;99.90;;;;;;5108632;28;20644;-81
2022/08/29 12:48:45;;;;;;;5.10;2.83;;;;;;;;;;5119220;27;20580;-81
2022/08/29 12:51:34;;;;;;;4.27;3.20;;;30.80;99.90;;;;;;5097689;28;20197;-81
2022/08/29 12:54:00;;;;;;;3.50;3.20;;;30.10;99.90;;;;;;5096080;28;20183;-81
2022/08/29 12:56:26;;;;;;;3.30;3.00;;;29.30;99.90;;;;;;5097102;28;20181;-80
2022/08/29 12:58:51;;;;;;;3.33;2.97;;;28.60;99.90;;;;;;5099666;28;20209;-82
2022/08/29 13:01:24;;;;;;;3.43;3.10;;;28.70;99.90;;;;;;5098479;28;20240;-80
2022/08/29 13:04:09;;;;;;;4.73;3.50;;;29.30;99.90;;;;;;5100411;28;20171;-81
2022/08/29 13:06:36;;;;;;;5.80;3.03;;;29.90;99.90;;;;;;5102800;28;20176;-82
2022/08/29 13:09:04;;;;;;;5.00;3.20;;;30.50;99.90;;;;;;5098862;28;20641;-81
2022/08/29 13:11:31;;;;;;;3.20;2.77;;;30.50;99.90;;;;;;5107377;28;20174;-82
2022/08/29 13:14:09;;;;;;;5.90;3.63;;;30.70;99.90;;;;;;5118189;28;20180;-81
2022/08/29 13:16:37;;;;;;;4.57;2.90;;;31.00;99.90;;;;;;5119746;28;20228;-82
2022/08/29 13:19:04;;;;;;;5.23;3.10;;;30.70;99.90;;;;;;5120773;28;20223;-82
2022/08/29 13:21:31;;;;;;;3.90;2.90;;;30.70;99.90;;;;;;5119611;28;20180;-82
2022/08/29 13:24:08;;;;;;;7.13;3.50;;;29.60;99.90;;;;;;5120316;28;20168;-82
2022/08/29 13:26:36;;;;;;;4.93;3.50;;;28.20;99.90;;;;;;5119285;28;20171;-82
2022/08/29 13:29:08;;;;;;;3.93;3.50;;;28.50;99.90;;;;;;5117193;28;20192;-81
2022/08/29 13:31:36;;;;;;;3.57;2.70;;;28.60;99.90;;;;;;5117048;28;20177;-81
2022/08/29 13:34:04;;;;;;;3.43;2.77;;;29.00;99.90;;;;;;5118409;28;20183;-81
2022/08/29 13:37:01;;;;;;;6.07;3.13;;;29.50;99.90;;;;;;5117727;28;20172;-82
2022/08/29 13:39:28;;;;;;;2.60;2.40;;;29.20;99.90;;;;;;5118374;27;20276;-79
2022/08/29 13:41:59;;;;;;;3.10;2.90;;;29.10;99.90;;;;;;5117986;28;20191;-81
2022/08/29 13:44:29;;;;;;;3.53;3.10;;;28.50;99.90;;;;;;5117719;28;20167;-77
2022/08/29 13:46:59;;;;;;;3.97;2.57;;;29.50;99.90;;;;;;5118205;28;20173;-82
2022/08/29 13:49:35;;;;;;;3.70;3.07;;;30.20;99.90;;;;;;5119165;28;20188;-83
2022/08/29 13:52:01;;;;;;;6.83;3.33;;;30.40;99.90;;;;;;5118444;28;20164;-83
2022/08/29 13:54:32;;;;;;;4.53;3.37;;;31.00;99.90;;;;;;5117248;28;20639;-83
2022/08/29 13:56:59;;;;;;;5.00;2.87;;;31.30;99.90;;;;;;5118338;28;20180;-80
2022/08/29 13:59:29;;;;;;;7.20;2.80;;;31.30;99.10;;;;;;5118523;28;20193;-85
2022/08/29 14:02:00;;;;;;;3.20;2.90;;;31.30;98.90;;;;;;5099039;28;20183;-84
2022/08/29 14:04:27;;;;;;;3.23;3.00;;;31.50;99.90;;;;;;5098565;28;20185;-83
2022/08/29 14:06:57;;;;;;;4.43;3.20;;;31.80;99.90;;;;;;5097524;28;20170;-81
2022/08/29 14:09:30;;;;;;;4.00;2.80;;;31.20;98.20;;;;;;5099556;28;20203;-83
2022/08/29 14:11:56;;;;;;;3.77;3.47;;;31.20;98.90;;;;;;5097645;28;20190;-83